Terminal Aerodrome Forecast
Issued by NWS

Home | Current Version | Previous Version | Text Only | Print | Product List | Glossary On
Versions: 1 2 3 4 5 6 7 8 9 10 11 12 13 14
676
FTUS46 KSEW 012054 AAA
TAFCLM
TAF AMD
KCLM 012054Z 0121/0218 00000KT P6SM SCT011 BKN120
     FM020100 VRB03KT P6SM -SHRA SCT020 OVC050
     FM021000 VRB03KT P6SM BKN050=

USA.gov is the U.S. government's official web portal to all federal, state and local government web resources and services.